sensor_id;sensor_type;location;lat;lon;timestamp;temperature;humidity
15630;DHT22;7914;50.842;0.166;2023-06-14T00:01:54;15.50;54.20
15630;DHT22;7914;50.842;0.166;2023-06-14T00:04:21;15.60;51.40
15630;DHT22;7914;50.842;0.166;2023-06-14T00:06:47;15.60;52.60
15630;DHT22;7914;50.842;0.166;2023-06-14T00:09:14;15.50;52.40
15630;DHT22;7914;50.842;0.166;2023-06-14T00:11:41;15.50;53.70
15630;DHT22;7914;50.842;0.166;2023-06-14T00:14:06;15.40;53.70
15630;DHT22;7914;50.842;0.166;2023-06-14T00:16:32;15.10;54.50
15630;DHT22;7914;50.842;0.166;2023-06-14T00:19:03;15.00;54.50
15630;DHT22;7914;50.842;0.166;2023-06-14T00:21:30;14.90;54.50
15630;DHT22;7914;50.842;0.166;2023-06-14T00:23:57;15.00;55.40
15630;DHT22;7914;50.842;0.166;2023-06-14T00:26:23;14.90;53.20
15630;DHT22;7914;50.842;0.166;2023-06-14T00:28:49;15.00;53.70
15630;DHT22;7914;50.842;0.166;2023-06-14T00:31:14;15.10;52.80
15630;DHT22;7914;50.842;0.166;2023-06-14T00:33:40;15.10;52.70
15630;DHT22;7914;50.842;0.166;2023-06-14T00:36:06;15.10;53.00
15630;DHT22;7914;50.842;0.166;2023-06-14T00:38:31;15.20;51.40
15630;DHT22;7914;50.842;0.166;2023-06-14T00:40:57;15.20;53.10
15630;DHT22;7914;50.842;0.166;2023-06-14T00:43:23;15.10;52.90
15630;DHT22;7914;50.842;0.166;2023-06-14T00:45:49;15.00;53.80
15630;DHT22;7914;50.842;0.166;2023-06-14T00:48:17;14.90;54.10
15630;DHT22;7914;50.842;0.166;2023-06-14T00:50:43;14.80;54.90
15630;DHT22;7914;50.842;0.166;2023-06-14T00:53:12;14.60;55.00
15630;DHT22;7914;50.842;0.166;2023-06-14T00:55:38;14.60;54.80
15630;DHT22;7914;50.842;0.166;2023-06-14T00:58:04;14.50;54.00
15630;DHT22;7914;50.842;0.166;2023-06-14T01:00:29;14.40;54.70
15630;DHT22;7914;50.842;0.166;2023-06-14T01:02:55;14.50;53.00
15630;DHT22;7914;50.842;0.166;2023-06-14T01:05:22;14.60;52.30
15630;DHT22;7914;50.842;0.166;2023-06-14T01:11:12;14.90;51.00
15630;DHT22;7914;50.842;0.166;2023-06-14T01:13:42;14.90;51.00
15630;DHT22;7914;50.842;0.166;2023-06-14T01:16:10;14.90;51.30
15630;DHT22;7914;50.842;0.166;2023-06-14T01:18:36;14.70;52.60
15630;DHT22;7914;50.842;0.166;2023-06-14T01:21:02;14.60;52.80
15630;DHT22;7914;50.842;0.166;2023-06-14T01:23:31;14.60;52.70
15630;DHT22;7914;50.842;0.166;2023-06-14T01:25:59;14.40;53.30
15630;DHT22;7914;50.842;0.166;2023-06-14T01:28:27;14.30;53.70
15630;DHT22;7914;50.842;0.166;2023-06-14T01:31:00;14.20;54.50
15630;DHT22;7914;50.842;0.166;2023-06-14T01:33:29;14.10;55.10
15630;DHT22;7914;50.842;0.166;2023-06-14T01:35:56;14.10;54.30
15630;DHT22;7914;50.842;0.166;2023-06-14T01:38:24;14.10;54.50
15630;DHT22;7914;50.842;0.166;2023-06-14T01:40:51;14.10;53.50
15630;DHT22;7914;50.842;0.166;2023-06-14T01:43:18;14.20;54.30
15630;DHT22;7914;50.842;0.166;2023-06-14T01:45:47;14.20;54.20
15630;DHT22;7914;50.842;0.166;2023-06-14T01:48:14;14.10;54.70
15630;DHT22;7914;50.842;0.166;2023-06-14T01:50:40;14.00;55.80
15630;DHT22;7914;50.842;0.166;2023-06-14T01:53:09;14.00;55.90
15630;DHT22;7914;50.842;0.166;2023-06-14T01:55:35;13.90;55.30
15630;DHT22;7914;50.842;0.166;2023-06-14T01:58:04;13.90;56.20
15630;DHT22;7914;50.842;0.166;2023-06-14T02:00:30;13.90;57.00
15630;DHT22;7914;50.842;0.166;2023-06-14T02:02:56;13.80;56.40
15630;DHT22;7914;50.842;0.166;2023-06-14T02:05:22;13.70;56.10
15630;DHT22;7914;50.842;0.166;2023-06-14T02:07:47;13.80;57.50
15630;DHT22;7914;50.842;0.166;2023-06-14T02:10:13;13.70;57.80
15630;DHT22;7914;50.842;0.166;2023-06-14T02:12:40;13.70;57.30
15630;DHT22;7914;50.842;0.166;2023-06-14T02:15:06;13.80;55.80
15630;DHT22;7914;50.842;0.166;2023-06-14T02:17:32;13.80;56.20
15630;DHT22;7914;50.842;0.166;2023-06-14T02:19:58;13.70;56.20
15630;DHT22;7914;50.842;0.166;2023-06-14T02:22:24;13.70;56.50
15630;DHT22;7914;50.842;0.166;2023-06-14T02:24:50;13.70;55.70
15630;DHT22;7914;50.842;0.166;2023-06-14T02:27:16;13.70;56.30
15630;DHT22;7914;50.842;0.166;2023-06-14T02:29:42;13.60;55.30
15630;DHT22;7914;50.842;0.166;2023-06-14T02:32:08;13.50;56.10
15630;DHT22;7914;50.842;0.166;2023-06-14T02:34:34;13.50;56.10
15630;DHT22;7914;50.842;0.166;2023-06-14T02:37:01;13.40;57.50
15630;DHT22;7914;50.842;0.166;2023-06-14T02:39:28;13.30;57.70
15630;DHT22;7914;50.842;0.166;2023-06-14T02:41:54;13.30;56.90
15630;DHT22;7914;50.842;0.166;2023-06-14T02:44:24;13.30;58.40
15630;DHT22;7914;50.842;0.166;2023-06-14T02:46:51;13.20;59.00
15630;DHT22;7914;50.842;0.166;2023-06-14T02:49:16;13.30;58.90
15630;DHT22;7914;50.842;0.166;2023-06-14T02:51:42;13.30;58.30
15630;DHT22;7914;50.842;0.166;2023-06-14T02:54:08;13.40;58.70
15630;DHT22;7914;50.842;0.166;2023-06-14T02:56:33;13.40;58.20
15630;DHT22;7914;50.842;0.166;2023-06-14T02:58:59;13.40;59.20
15630;DHT22;7914;50.842;0.166;2023-06-14T03:01:26;13.40;59.40
15630;DHT22;7914;50.842;0.166;2023-06-14T03:04:03;13.40;59.60
15630;DHT22;7914;50.842;0.166;2023-06-14T03:06:29;13.30;60.20
15630;DHT22;7914;50.842;0.166;2023-06-14T03:08:56;13.40;60.70
15630;DHT22;7914;50.842;0.166;2023-06-14T03:11:25;13.30;61.70
15630;DHT22;7914;50.842;0.166;2023-06-14T03:13:52;13.30;61.90
15630;DHT22;7914;50.842;0.166;2023-06-14T03:16:18;13.30;62.60
15630;DHT22;7914;50.842;0.166;2023-06-14T03:18:48;13.20;63.60
15630;DHT22;7914;50.842;0.166;2023-06-14T03:21:14;13.20;63.60
15630;DHT22;7914;50.842;0.166;2023-06-14T03:23:42;13.20;64.20
15630;DHT22;7914;50.842;0.166;2023-06-14T03:26:08;13.10;65.10
15630;DHT22;7914;50.842;0.166;2023-06-14T03:28:34;13.10;65.00
15630;DHT22;7914;50.842;0.166;2023-06-14T03:31:00;13.10;65.40
15630;DHT22;7914;50.842;0.166;2023-06-14T03:33:27;13.10;65.70
15630;DHT22;7914;50.842;0.166;2023-06-14T03:35:52;13.10;65.50
15630;DHT22;7914;50.842;0.166;2023-06-14T03:38:18;13.30;65.40
15630;DHT22;7914;50.842;0.166;2023-06-14T03:40:44;13.20;66.70
15630;DHT22;7914;50.842;0.166;2023-06-14T03:43:10;13.10;67.50
15630;DHT22;7914;50.842;0.166;2023-06-14T03:45:36;13.10;67.40
15630;DHT22;7914;50.842;0.166;2023-06-14T03:48:03;13.20;67.60
15630;DHT22;7914;50.842;0.166;2023-06-14T03:50:32;13.10;68.70
15630;DHT22;7914;50.842;0.166;2023-06-14T03:52:58;13.10;69.40
15630;DHT22;7914;50.842;0.166;2023-06-14T03:55:23;13.00;70.30
15630;DHT22;7914;50.842;0.166;2023-06-14T03:57:51;13.00;70.50
15630;DHT22;7914;50.842;0.166;2023-06-14T04:00:17;13.00;71.00
15630;DHT22;7914;50.842;0.166;2023-06-14T04:02:44;13.00;71.50
15630;DHT22;7914;50.842;0.166;2023-06-14T04:05:10;13.00;71.50
15630;DHT22;7914;50.842;0.166;2023-06-14T04:07:36;12.90;72.10
15630;DHT22;7914;50.842;0.166;2023-06-14T04:10:11;13.10;72.20
15630;DHT22;7914;50.842;0.166;2023-06-14T04:12:37;13.10;71.50
15630;DHT22;7914;50.842;0.166;2023-06-14T04:15:03;13.10;71.50
15630;DHT22;7914;50.842;0.166;2023-06-14T04:17:29;13.00;72.00
15630;DHT22;7914;50.842;0.166;2023-06-14T04:19:55;13.00;71.30
15630;DHT22;7914;50.842;0.166;2023-06-14T04:22:20;13.00;71.40
15630;DHT22;7914;50.842;0.166;2023-06-14T04:24:46;13.00;71.10
15630;DHT22;7914;50.842;0.166;2023-06-14T04:27:12;13.10;70.50
15630;DHT22;7914;50.842;0.166;2023-06-14T04:29:40;13.20;70.80
15630;DHT22;7914;50.842;0.166;2023-06-14T04:32:08;13.20;70.40
15630;DHT22;7914;50.842;0.166;2023-06-14T04:34:35;13.40;70.20
15630;DHT22;7914;50.842;0.166;2023-06-14T04:37:03;13.50;70.40
15630;DHT22;7914;50.842;0.166;2023-06-14T04:39:28;13.50;71.00
15630;DHT22;7914;50.842;0.166;2023-06-14T04:41:54;13.60;71.10
15630;DHT22;7914;50.842;0.166;2023-06-14T04:44:23;13.80;71.20
15630;DHT22;7914;50.842;0.166;2023-06-14T04:46:57;13.90;71.70
15630;DHT22;7914;50.842;0.166;2023-06-14T04:49:24;14.10;71.60
15630;DHT22;7914;50.842;0.166;2023-06-14T04:51:50;14.00;72.30
15630;DHT22;7914;50.842;0.166;2023-06-14T04:54:23;14.00;73.50
15630;DHT22;7914;50.842;0.166;2023-06-14T04:56:50;14.30;72.30
15630;DHT22;7914;50.842;0.166;2023-06-14T04:59:16;14.30;73.00
15630;DHT22;7914;50.842;0.166;2023-06-14T05:05:23;14.80;70.30
15630;DHT22;7914;50.842;0.166;2023-06-14T05:07:49;15.50;69.00
15630;DHT22;7914;50.842;0.166;2023-06-14T05:10:16;15.90;67.70
15630;DHT22;7914;50.842;0.166;2023-06-14T05:12:41;16.10;67.70
15630;DHT22;7914;50.842;0.166;2023-06-14T05:15:09;16.30;66.40
15630;DHT22;7914;50.842;0.166;2023-06-14T05:17:35;16.30;66.40
15630;DHT22;7914;50.842;0.166;2023-06-14T05:20:01;16.60;66.00
15630;DHT22;7914;50.842;0.166;2023-06-14T05:22:27;17.10;64.10
15630;DHT22;7914;50.842;0.166;2023-06-14T05:24:53;17.30;63.50
15630;DHT22;7914;50.842;0.166;2023-06-14T05:27:18;17.60;63.20
15630;DHT22;7914;50.842;0.166;2023-06-14T05:29:44;17.60;63.10
15630;DHT22;7914;50.842;0.166;2023-06-14T05:32:10;17.50;63.50
15630;DHT22;7914;50.842;0.166;2023-06-14T05:34:35;17.60;64.10
15630;DHT22;7914;50.842;0.166;2023-06-14T05:37:01;17.40;65.30
15630;DHT22;7914;50.842;0.166;2023-06-14T05:39:26;17.40;65.20
15630;DHT22;7914;50.842;0.166;2023-06-14T05:41:52;17.70;65.40
15630;DHT22;7914;50.842;0.166;2023-06-14T05:44:18;18.40;63.50
15630;DHT22;7914;50.842;0.166;2023-06-14T05:46:43;19.00;61.80
15630;DHT22;7914;50.842;0.166;2023-06-14T05:49:09;19.60;61.20
15630;DHT22;7914;50.842;0.166;2023-06-14T05:51:35;20.10;59.30
15630;DHT22;7914;50.842;0.166;2023-06-14T05:54:00;20.60;58.40
15630;DHT22;7914;50.842;0.166;2023-06-14T05:56:26;20.60;58.40
15630;DHT22;7914;50.842;0.166;2023-06-14T05:58:52;20.70;58.40
15630;DHT22;7914;50.842;0.166;2023-06-14T06:01:18;20.50;59.10
15630;DHT22;7914;50.842;0.166;2023-06-14T06:03:43;19.90;60.20
15630;DHT22;7914;50.842;0.166;2023-06-14T06:06:12;19.40;62.10
15630;DHT22;7914;50.842;0.166;2023-06-14T06:08:38;18.90;64.00
15630;DHT22;7914;50.842;0.166;2023-06-14T06:11:04;18.90;64.60
15630;DHT22;7914;50.842;0.166;2023-06-14T06:13:30;18.80;64.80
15630;DHT22;7914;50.842;0.166;2023-06-14T06:15:55;18.70;65.60
15630;DHT22;7914;50.842;0.166;2023-06-14T06:18:21;19.00;64.60
15630;DHT22;7914;50.842;0.166;2023-06-14T06:20:47;19.20;64.50
15630;DHT22;7914;50.842;0.166;2023-06-14T06:23:13;19.20;64.20
15630;DHT22;7914;50.842;0.166;2023-06-14T06:25:38;19.30;64.50
15630;DHT22;7914;50.842;0.166;2023-06-14T06:28:04;19.30;65.20
15630;DHT22;7914;50.842;0.166;2023-06-14T06:30:30;19.40;65.80
15630;DHT22;7914;50.842;0.166;2023-06-14T06:32:55;19.70;65.30
15630;DHT22;7914;50.842;0.166;2023-06-14T06:35:21;19.80;65.00
15630;DHT22;7914;50.842;0.166;2023-06-14T06:37:47;19.60;65.10
15630;DHT22;7914;50.842;0.166;2023-06-14T06:40:13;19.70;65.80
15630;DHT22;7914;50.842;0.166;2023-06-14T06:42:39;20.00;65.10
15630;DHT22;7914;50.842;0.166;2023-06-14T06:45:05;20.30;64.50
15630;DHT22;7914;50.842;0.166;2023-06-14T06:47:31;20.40;64.40
15630;DHT22;7914;50.842;0.166;2023-06-14T06:49:57;20.70;63.90
15630;DHT22;7914;50.842;0.166;2023-06-14T06:52:24;20.90;63.20
15630;DHT22;7914;50.842;0.166;2023-06-14T06:54:49;20.90;63.30
15630;DHT22;7914;50.842;0.166;2023-06-14T06:57:16;21.10;64.40
15630;DHT22;7914;50.842;0.166;2023-06-14T06:59:41;21.60;63.30
15630;DHT22;7914;50.842;0.166;2023-06-14T07:02:07;22.30;61.20
15630;DHT22;7914;50.842;0.166;2023-06-14T07:04:33;22.90;59.00
15630;DHT22;7914;50.842;0.166;2023-06-14T07:06:58;23.40;57.40
15630;DHT22;7914;50.842;0.166;2023-06-14T07:09:24;23.80;57.00
15630;DHT22;7914;50.842;0.166;2023-06-14T07:11:50;24.30;55.90
15630;DHT22;7914;50.842;0.166;2023-06-14T07:14:16;24.30;54.60
15630;DHT22;7914;50.842;0.166;2023-06-14T07:16:41;24.10;55.70
15630;DHT22;7914;50.842;0.166;2023-06-14T07:19:08;24.20;54.40
15630;DHT22;7914;50.842;0.166;2023-06-14T07:21:34;24.00;55.20
15630;DHT22;7914;50.842;0.166;2023-06-14T07:24:00;23.90;54.80
15630;DHT22;7914;50.842;0.166;2023-06-14T07:26:26;23.30;57.20
15630;DHT22;7914;50.842;0.166;2023-06-14T07:28:52;23.50;57.10
15630;DHT22;7914;50.842;0.166;2023-06-14T07:31:18;23.40;56.80
15630;DHT22;7914;50.842;0.166;2023-06-14T07:33:45;23.80;56.30
15630;DHT22;7914;50.842;0.166;2023-06-14T07:36:11;24.40;54.10
15630;DHT22;7914;50.842;0.166;2023-06-14T07:38:36;24.70;53.80
15630;DHT22;7914;50.842;0.166;2023-06-14T07:41:02;24.10;54.90
15630;DHT22;7914;50.842;0.166;2023-06-14T07:43:28;23.90;54.70
15630;DHT22;7914;50.842;0.166;2023-06-14T07:45:54;24.60;53.90
15630;DHT22;7914;50.842;0.166;2023-06-14T07:48:20;24.50;55.60
15630;DHT22;7914;50.842;0.166;2023-06-14T07:50:46;24.60;54.60
15630;DHT22;7914;50.842;0.166;2023-06-14T07:53:11;24.50;55.70
15630;DHT22;7914;50.842;0.166;2023-06-14T07:55:37;24.50;54.30
15630;DHT22;7914;50.842;0.166;2023-06-14T07:58:04;24.50;54.80
15630;DHT22;7914;50.842;0.166;2023-06-14T08:00:30;25.00;53.90
15630;DHT22;7914;50.842;0.166;2023-06-14T08:02:56;25.30;52.20
15630;DHT22;7914;50.842;0.166;2023-06-14T08:05:25;24.90;53.10
15630;DHT22;7914;50.842;0.166;2023-06-14T08:07:51;24.60;55.10
15630;DHT22;7914;50.842;0.166;2023-06-14T08:10:18;24.70;55.00
15630;DHT22;7914;50.842;0.166;2023-06-14T08:12:43;24.50;55.20
15630;DHT22;7914;50.842;0.166;2023-06-14T08:15:09;24.10;55.10
15630;DHT22;7914;50.842;0.166;2023-06-14T08:17:35;23.90;55.30
15630;DHT22;7914;50.842;0.166;2023-06-14T08:20:02;23.70;55.30
15630;DHT22;7914;50.842;0.166;2023-06-14T08:22:30;23.90;55.80
15630;DHT22;7914;50.842;0.166;2023-06-14T08:24:59;23.60;56.60
15630;DHT22;7914;50.842;0.166;2023-06-14T08:27:25;23.40;56.80
15630;DHT22;7914;50.842;0.166;2023-06-14T08:29:51;23.60;58.60
15630;DHT22;7914;50.842;0.166;2023-06-14T08:32:16;23.90;58.40
15630;DHT22;7914;50.842;0.166;2023-06-14T08:34:42;24.00;57.20
15630;DHT22;7914;50.842;0.166;2023-06-14T08:37:08;23.70;55.60
15630;DHT22;7914;50.842;0.166;2023-06-14T08:39:33;23.60;57.40
15630;DHT22;7914;50.842;0.166;2023-06-14T08:42:01;23.60;57.90
15630;DHT22;7914;50.842;0.166;2023-06-14T08:44:27;23.70;58.10
15630;DHT22;7914;50.842;0.166;2023-06-14T08:46:55;23.90;58.90
15630;DHT22;7914;50.842;0.166;2023-06-14T08:49:23;23.80;56.90
15630;DHT22;7914;50.842;0.166;2023-06-14T08:51:57;23.90;56.40
15630;DHT22;7914;50.842;0.166;2023-06-14T08:54:25;24.10;56.90
15630;DHT22;7914;50.842;0.166;2023-06-14T08:56:53;24.10;57.30
15630;DHT22;7914;50.842;0.166;2023-06-14T08:59:26;24.20;56.90
15630;DHT22;7914;50.842;0.166;2023-06-14T09:01:53;24.40;57.50
15630;DHT22;7914;50.842;0.166;2023-06-14T09:04:20;24.60;57.80
15630;DHT22;7914;50.842;0.166;2023-06-14T09:06:47;25.00;55.90
15630;DHT22;7914;50.842;0.166;2023-06-14T09:09:22;25.10;55.50
15630;DHT22;7914;50.842;0.166;2023-06-14T09:11:51;24.90;56.60
15630;DHT22;7914;50.842;0.166;2023-06-14T09:14:19;25.10;55.50
15630;DHT22;7914;50.842;0.166;2023-06-14T09:16:44;25.10;56.20
15630;DHT22;7914;50.842;0.166;2023-06-14T09:19:31;25.40;54.50
15630;DHT22;7914;50.842;0.166;2023-06-14T09:21:56;25.60;53.90
15630;DHT22;7914;50.842;0.166;2023-06-14T09:24:24;25.70;53.60
15630;DHT22;7914;50.842;0.166;2023-06-14T09:26:51;25.80;54.20
15630;DHT22;7914;50.842;0.166;2023-06-14T09:29:18;25.60;52.00
15630;DHT22;7914;50.842;0.166;2023-06-14T09:31:46;25.80;53.70
15630;DHT22;7914;50.842;0.166;2023-06-14T09:34:12;25.90;54.20
15630;DHT22;7914;50.842;0.166;2023-06-14T09:36:40;25.90;54.20
15630;DHT22;7914;50.842;0.166;2023-06-14T09:39:08;26.20;53.70
15630;DHT22;7914;50.842;0.166;2023-06-14T09:41:40;26.10;52.00
15630;DHT22;7914;50.842;0.166;2023-06-14T09:44:09;26.40;52.20
15630;DHT22;7914;50.842;0.166;2023-06-14T09:46:36;26.50;51.70
15630;DHT22;7914;50.842;0.166;2023-06-14T09:49:02;26.40;49.70
15630;DHT22;7914;50.842;0.166;2023-06-14T09:51:29;26.20;51.00
15630;DHT22;7914;50.842;0.166;2023-06-14T09:54:06;26.40;52.10
15630;DHT22;7914;50.842;0.166;2023-06-14T09:56:37;26.70;53.00
15630;DHT22;7914;50.842;0.166;2023-06-14T09:59:06;26.50;51.90
15630;DHT22;7914;50.842;0.166;2023-06-14T10:01:35;26.40;51.60
15630;DHT22;7914;50.842;0.166;2023-06-14T10:04:06;26.50;51.80
15630;DHT22;7914;50.842;0.166;2023-06-14T10:06:37;26.50;52.00
15630;DHT22;7914;50.842;0.166;2023-06-14T10:09:07;26.50;52.90
15630;DHT22;7914;50.842;0.166;2023-06-14T10:11:35;26.70;48.30
15630;DHT22;7914;50.842;0.166;2023-06-14T10:14:02;26.50;49.40
15630;DHT22;7914;50.842;0.166;2023-06-14T10:16:34;26.60;48.90
15630;DHT22;7914;50.842;0.166;2023-06-14T10:24:13;27.20;48.50
15630;DHT22;7914;50.842;0.166;2023-06-14T10:26:51;27.30;48.40
15630;DHT22;7914;50.842;0.166;2023-06-14T10:29:18;27.40;49.30
15630;DHT22;7914;50.842;0.166;2023-06-14T10:31:45;27.60;46.30
15630;DHT22;7914;50.842;0.166;2023-06-14T10:34:12;27.70;45.50
15630;DHT22;7914;50.842;0.166;2023-06-14T10:36:46;28.00;47.20
15630;DHT22;7914;50.842;0.166;2023-06-14T10:39:25;28.10;44.60
15630;DHT22;7914;50.842;0.166;2023-06-14T10:41:56;28.00;43.90
15630;DHT22;7914;50.842;0.166;2023-06-14T10:46:54;27.70;44.60
15630;DHT22;7914;50.842;0.166;2023-06-14T10:49:36;28.00;43.10
15630;DHT22;7914;50.842;0.166;2023-06-14T10:52:15;27.70;43.40
15630;DHT22;7914;50.842;0.166;2023-06-14T10:57:39;28.00;45.00
15630;DHT22;7914;50.842;0.166;2023-06-14T11:00:08;28.20;42.80
15630;DHT22;7914;50.842;0.166;2023-06-14T11:05:49;28.30;41.90
15630;DHT22;7914;50.842;0.166;2023-06-14T11:11:22;27.80;41.50
15630;DHT22;7914;50.842;0.166;2023-06-14T11:13:49;27.60;40.60
15630;DHT22;7914;50.842;0.166;2023-06-14T11:16:17;27.70;41.80
15630;DHT22;7914;50.842;0.166;2023-06-14T11:18:44;27.60;40.40
15630;DHT22;7914;50.842;0.166;2023-06-14T11:21:11;27.90;43.30
15630;DHT22;7914;50.842;0.166;2023-06-14T11:23:36;28.00;40.50
15630;DHT22;7914;50.842;0.166;2023-06-14T11:26:03;27.90;41.70
15630;DHT22;7914;50.842;0.166;2023-06-14T11:28:37;28.00;42.10
15630;DHT22;7914;50.842;0.166;2023-06-14T11:31:04;27.80;40.80
15630;DHT22;7914;50.842;0.166;2023-06-14T11:33:30;27.80;39.90
15630;DHT22;7914;50.842;0.166;2023-06-14T11:35:56;28.10;41.50
15630;DHT22;7914;50.842;0.166;2023-06-14T11:38:21;28.00;41.80
15630;DHT22;7914;50.842;0.166;2023-06-14T11:40:47;28.10;44.40
15630;DHT22;7914;50.842;0.166;2023-06-14T11:43:13;28.20;42.80
15630;DHT22;7914;50.842;0.166;2023-06-14T11:45:39;28.20;43.20
15630;DHT22;7914;50.842;0.166;2023-06-14T11:48:06;28.00;43.30
15630;DHT22;7914;50.842;0.166;2023-06-14T11:50:32;28.00;42.50
15630;DHT22;7914;50.842;0.166;2023-06-14T11:53:02;28.00;43.00
15630;DHT22;7914;50.842;0.166;2023-06-14T11:55:36;28.00;44.70
15630;DHT22;7914;50.842;0.166;2023-06-14T11:58:02;28.00;43.60
15630;DHT22;7914;50.842;0.166;2023-06-14T12:00:29;28.10;42.40
15630;DHT22;7914;50.842;0.166;2023-06-14T12:02:57;28.10;44.20
15630;DHT22;7914;50.842;0.166;2023-06-14T12:05:24;28.10;44.00
15630;DHT22;7914;50.842;0.166;2023-06-14T12:07:50;28.00;44.60
15630;DHT22;7914;50.842;0.166;2023-06-14T12:10:19;28.20;42.70
15630;DHT22;7914;50.842;0.166;2023-06-14T12:12:45;28.00;43.70
15630;DHT22;7914;50.842;0.166;2023-06-14T12:15:11;28.20;41.60
15630;DHT22;7914;50.842;0.166;2023-06-14T12:17:37;28.20;42.00
15630;DHT22;7914;50.842;0.166;2023-06-14T12:22:46;28.30;39.30
15630;DHT22;7914;50.842;0.166;2023-06-14T12:27:53;28.10;36.20
15630;DHT22;7914;50.842;0.166;2023-06-14T12:30:19;28.20;38.10
15630;DHT22;7914;50.842;0.166;2023-06-14T12:32:45;28.20;37.20
15630;DHT22;7914;50.842;0.166;2023-06-14T12:35:11;28.20;37.90
15630;DHT22;7914;50.842;0.166;2023-06-14T12:37:37;28.30;39.30
15630;DHT22;7914;50.842;0.166;2023-06-14T12:40:03;28.30;38.60
15630;DHT22;7914;50.842;0.166;2023-06-14T12:42:32;28.30;37.40
15630;DHT22;7914;50.842;0.166;2023-06-14T12:44:59;28.20;37.30
15630;DHT22;7914;50.842;0.166;2023-06-14T12:47:24;28.10;37.80
15630;DHT22;7914;50.842;0.166;2023-06-14T12:49:50;28.10;36.30
15630;DHT22;7914;50.842;0.166;2023-06-14T12:52:16;27.90;36.50
15630;DHT22;7914;50.842;0.166;2023-06-14T12:54:41;27.80;36.90
15630;DHT22;7914;50.842;0.166;2023-06-14T12:57:07;27.90;37.90
15630;DHT22;7914;50.842;0.166;2023-06-14T12:59:33;28.20;37.40
15630;DHT22;7914;50.842;0.166;2023-06-14T13:02:19;28.30;38.50
15630;DHT22;7914;50.842;0.166;2023-06-14T13:04:47;28.30;36.80
15630;DHT22;7914;50.842;0.166;2023-06-14T13:07:13;28.30;38.40
15630;DHT22;7914;50.842;0.166;2023-06-14T13:09:41;28.30;38.40
15630;DHT22;7914;50.842;0.166;2023-06-14T13:12:07;28.10;39.80
15630;DHT22;7914;50.842;0.166;2023-06-14T13:14:33;28.20;39.60
15630;DHT22;7914;50.842;0.166;2023-06-14T13:16:59;28.10;39.30
15630;DHT22;7914;50.842;0.166;2023-06-14T13:19:25;27.90;40.30
15630;DHT22;7914;50.842;0.166;2023-06-14T13:21:51;27.90;37.90
15630;DHT22;7914;50.842;0.166;2023-06-14T13:24:16;28.10;40.50
15630;DHT22;7914;50.842;0.166;2023-06-14T13:26:42;28.10;38.90
15630;DHT22;7914;50.842;0.166;2023-06-14T13:29:08;28.00;40.10
15630;DHT22;7914;50.842;0.166;2023-06-14T13:31:34;28.00;41.20
15630;DHT22;7914;50.842;0.166;2023-06-14T13:33:59;27.80;39.70
15630;DHT22;7914;50.842;0.166;2023-06-14T13:36:25;27.50;38.10
15630;DHT22;7914;50.842;0.166;2023-06-14T13:38:51;27.30;38.20
15630;DHT22;7914;50.842;0.166;2023-06-14T13:41:18;27.50;37.40
15630;DHT22;7914;50.842;0.166;2023-06-14T13:43:44;27.40;36.90
15630;DHT22;7914;50.842;0.166;2023-06-14T13:46:09;27.40;38.30
15630;DHT22;7914;50.842;0.166;2023-06-14T13:48:35;27.60;37.40
15630;DHT22;7914;50.842;0.166;2023-06-14T13:51:00;27.70;36.70
15630;DHT22;7914;50.842;0.166;2023-06-14T13:53:26;27.60;35.80
15630;DHT22;7914;50.842;0.166;2023-06-14T13:55:52;27.60;35.50
15630;DHT22;7914;50.842;0.166;2023-06-14T13:58:18;27.70;35.70
15630;DHT22;7914;50.842;0.166;2023-06-14T14:00:44;27.60;36.20
15630;DHT22;7914;50.842;0.166;2023-06-14T14:03:10;27.70;35.80
15630;DHT22;7914;50.842;0.166;2023-06-14T14:05:36;27.60;34.90
15630;DHT22;7914;50.842;0.166;2023-06-14T14:08:02;27.50;35.30
15630;DHT22;7914;50.842;0.166;2023-06-14T14:10:29;27.40;35.20
15630;DHT22;7914;50.842;0.166;2023-06-14T14:12:55;27.30;34.80
15630;DHT22;7914;50.842;0.166;2023-06-14T14:15:20;27.20;35.50
15630;DHT22;7914;50.842;0.166;2023-06-14T14:17:46;27.20;35.80
15630;DHT22;7914;50.842;0.166;2023-06-14T14:20:15;27.30;36.10
15630;DHT22;7914;50.842;0.166;2023-06-14T14:22:44;27.40;34.10
15630;DHT22;7914;50.842;0.166;2023-06-14T14:25:10;27.30;34.00
15630;DHT22;7914;50.842;0.166;2023-06-14T14:27:36;27.20;34.70
15630;DHT22;7914;50.842;0.166;2023-06-14T14:30:03;27.00;35.00
15630;DHT22;7914;50.842;0.166;2023-06-14T14:32:29;27.10;35.20
15630;DHT22;7914;50.842;0.166;2023-06-14T14:34:55;27.20;34.50
15630;DHT22;7914;50.842;0.166;2023-06-14T14:37:21;27.00;34.20
15630;DHT22;7914;50.842;0.166;2023-06-14T14:39:46;26.90;34.60
15630;DHT22;7914;50.842;0.166;2023-06-14T14:42:12;26.90;34.70
15630;DHT22;7914;50.842;0.166;2023-06-14T14:44:39;26.80;34.00
15630;DHT22;7914;50.842;0.166;2023-06-14T14:47:05;26.80;35.40
15630;DHT22;7914;50.842;0.166;2023-06-14T14:49:31;26.80;35.70
15630;DHT22;7914;50.842;0.166;2023-06-14T14:51:57;26.70;35.40
15630;DHT22;7914;50.842;0.166;2023-06-14T14:54:23;26.80;35.20
15630;DHT22;7914;50.842;0.166;2023-06-14T14:56:50;26.70;34.10
15630;DHT22;7914;50.842;0.166;2023-06-14T14:59:16;26.80;36.30
15630;DHT22;7914;50.842;0.166;2023-06-14T15:01:42;26.80;35.00
15630;DHT22;7914;50.842;0.166;2023-06-14T15:04:08;26.80;36.00
15630;DHT22;7914;50.842;0.166;2023-06-14T15:06:33;26.80;35.90
15630;DHT22;7914;50.842;0.166;2023-06-14T15:09:01;26.70;34.60
15630;DHT22;7914;50.842;0.166;2023-06-14T15:11:27;26.60;34.90
15630;DHT22;7914;50.842;0.166;2023-06-14T15:13:54;26.70;36.10
15630;DHT22;7914;50.842;0.166;2023-06-14T15:16:20;26.80;35.10
15630;DHT22;7914;50.842;0.166;2023-06-14T15:18:45;26.60;36.40
15630;DHT22;7914;50.842;0.166;2023-06-14T15:21:12;26.70;36.10
15630;DHT22;7914;50.842;0.166;2023-06-14T15:23:38;26.60;36.20
15630;DHT22;7914;50.842;0.166;2023-06-14T15:26:05;26.60;35.80
15630;DHT22;7914;50.842;0.166;2023-06-14T15:28:34;26.50;36.50
15630;DHT22;7914;50.842;0.166;2023-06-14T15:30:59;26.50;37.20
15630;DHT22;7914;50.842;0.166;2023-06-14T15:33:25;26.40;37.20
15630;DHT22;7914;50.842;0.166;2023-06-14T15:35:51;26.40;36.20
15630;DHT22;7914;50.842;0.166;2023-06-14T15:38:17;26.40;38.20
15630;DHT22;7914;50.842;0.166;2023-06-14T15:40:42;26.50;38.20
15630;DHT22;7914;50.842;0.166;2023-06-14T15:43:08;26.60;37.30
15630;DHT22;7914;50.842;0.166;2023-06-14T15:45:34;26.50;36.80
15630;DHT22;7914;50.842;0.166;2023-06-14T15:47:59;26.40;37.10
15630;DHT22;7914;50.842;0.166;2023-06-14T15:50:26;26.40;36.80
15630;DHT22;7914;50.842;0.166;2023-06-14T15:52:51;26.30;37.70
15630;DHT22;7914;50.842;0.166;2023-06-14T15:55:18;26.40;37.40
15630;DHT22;7914;50.842;0.166;2023-06-14T15:57:43;26.30;37.50
15630;DHT22;7914;50.842;0.166;2023-06-14T16:00:10;26.30;37.40
15630;DHT22;7914;50.842;0.166;2023-06-14T16:02:35;26.30;38.50
15630;DHT22;7914;50.842;0.166;2023-06-14T16:05:01;26.20;37.10
15630;DHT22;7914;50.842;0.166;2023-06-14T16:07:27;26.10;38.60
15630;DHT22;7914;50.842;0.166;2023-06-14T16:09:53;26.20;39.30
15630;DHT22;7914;50.842;0.166;2023-06-14T16:12:18;26.00;39.90